Time;durP1;ratioP1;P1;durP2;ratioP2;P2;SDS_P1;SDS_P2;PMS_P1;PMS_P2;Temp;Humidity;BMP_temperature;BMP_pressure;BME280_temperature;BME280_humidity;BME280_pressure;Samples;Min_cycle;Max_cycle;Signal;HPM_P1;HPM_P2
2023/09/26 00:01:13;;;;;;;9.50;8.13;;;14.50;99.90;;;;;;5056879;28;20033;-58
2023/09/26 00:03:40;;;;;;;;;;;14.50;99.90;;;;;;5057291;28;20083;-58
2023/09/26 00:06:21;;;;;;;9.20;8.23;;;14.50;99.90;;;;;;5054243;28;20368;-59
2023/09/26 00:08:47;;;;;;;9.77;8.88;;;14.40;99.90;;;;;;5055703;28;20033;-59
2023/09/26 00:11:13;;;;;;;13.30;9.63;;;14.40;99.90;;;;;;5055900;28;20102;-58
2023/09/26 00:13:39;;;;;;;10.45;9.27;;;14.30;99.90;;;;;;5056007;28;20555;-58
2023/09/26 00:16:06;;;;;;;11.80;9.50;;;14.20;99.90;;;;;;5056668;28;20121;-61
2023/09/26 00:18:32;;;;;;;10.98;9.88;;;14.20;99.90;;;;;;5057127;28;20036;-57
2023/09/26 00:20:58;;;;;;;10.13;9.23;;;14.10;99.90;;;;;;5053396;28;20041;-59
2023/09/26 00:23:24;;;;;;;11.32;9.65;;;14.00;99.90;;;;;;5052834;28;20068;-58
2023/09/26 00:25:50;;;;;;;10.43;9.48;;;14.00;99.90;;;;;;5051251;28;20075;-60
2023/09/26 00:28:15;;;;;;;12.45;9.63;;;13.90;99.90;;;;;;5051468;28;20509;-58
2023/09/26 00:30:42;;;;;;;11.13;9.52;;;13.80;99.90;;;;;;5052940;28;20029;-58
2023/09/26 00:33:08;;;;;;;10.48;9.20;;;13.80;99.90;;;;;;5059068;28;20110;-61
2023/09/26 00:35:34;;;;;;;11.23;8.40;;;13.80;99.90;;;;;;5059137;28;20077;-60
2023/09/26 00:38:00;;;;;;;9.13;8.18;;;13.70;99.90;;;;;;5055852;28;20598;-60
2023/09/26 00:40:26;;;;;;;11.60;9.50;;;13.70;99.90;;;;;;5052904;28;20112;-60
2023/09/26 00:42:51;;;;;;;15.15;11.10;;;13.60;99.90;;;;;;5053069;28;20047;-59
2023/09/26 00:45:18;;;;;;;10.68;9.60;;;13.60;99.90;;;;;;5052790;28;20514;-58
2023/09/26 00:47:44;;;;;;;12.98;9.95;;;13.50;99.90;;;;;;5051998;28;20084;-59
2023/09/26 00:50:13;;;;;;;13.93;9.70;;;13.50;99.90;;;;;;5056504;28;20079;-58
2023/09/26 00:52:46;;;;;;;15.45;10.32;;;13.40;99.90;;;;;;5055331;28;20041;-60
2023/09/26 00:55:15;;;;;;;10.07;9.25;;;13.40;99.90;;;;;;5056612;28;20526;-57
2023/09/26 00:57:41;;;;;;;12.05;8.90;;;13.40;99.90;;;;;;5056888;28;20036;-60
2023/09/26 01:00:12;;;;;;;9.98;9.07;;;13.40;99.90;;;;;;5052779;28;20047;-60
2023/09/26 01:02:38;;;;;;;11.13;10.00;;;13.30;99.90;;;;;;5051116;28;20033;-59
2023/09/26 01:05:04;;;;;;;;;;;13.30;99.90;;;;;;5053117;28;20043;-57
2023/09/26 01:07:31;;;;;;;12.48;10.07;;;13.30;99.90;;;;;;5052278;28;19920;-57
2023/09/26 01:09:57;;;;;;;10.55;9.55;;;13.30;99.90;;;;;;5052250;28;20491;-58
2023/09/26 01:12:23;;;;;;;12.07;10.32;;;13.40;99.90;;;;;;5052272;28;20119;-57
2023/09/26 01:14:49;;;;;;;11.63;10.18;;;13.40;99.90;;;;;;5052303;28;20036;-58
2023/09/26 01:17:14;;;;;;;12.52;11.25;;;13.40;99.90;;;;;;5054595;28;20495;-56
2023/09/26 01:19:40;;;;;;;10.40;9.05;;;13.50;99.90;;;;;;5052492;28;20040;-58
2023/09/26 01:22:05;;;;;;;7.30;6.70;;;13.40;99.90;;;;;;5055862;28;20550;-58
2023/09/26 01:24:33;;;;;;;9.80;8.50;;;13.40;99.90;;;;;;5052391;28;20036;-59
2023/09/26 01:26:59;;;;;;;11.63;10.52;;;13.30;99.90;;;;;;5054324;28;20036;-57
2023/09/26 01:29:25;;;;;;;11.18;10.07;;;13.20;99.90;;;;;;5036324;28;20044;-56
2023/09/26 01:31:50;;;;;;;12.18;11.02;;;13.20;99.90;;;;;;5051942;28;20052;-58
2023/09/26 01:34:17;;;;;;;12.65;10.85;;;13.10;99.90;;;;;;5058661;28;20049;-60
2023/09/26 01:36:42;;;;;;;13.20;10.90;;;13.10;99.90;;;;;;5055146;28;20580;-59
2023/09/26 01:39:08;;;;;;;12.98;11.73;;;13.10;99.90;;;;;;5055430;28;20045;-59
2023/09/26 01:41:34;;;;;;;16.17;11.18;;;13.00;99.90;;;;;;5050982;28;20075;-60
2023/09/26 01:43:59;;;;;;;13.43;11.07;;;12.90;99.90;;;;;;5055569;28;20094;-58
2023/09/26 01:46:25;;;;;;;12.15;10.85;;;12.90;99.90;;;;;;5051164;28;20041;-58
2023/09/26 01:48:51;;;;;;;13.93;10.82;;;12.80;99.90;;;;;;5051222;28;20453;-59
2023/09/26 01:51:17;;;;;;;11.85;10.65;;;12.80;99.90;;;;;;5051987;28;20040;-58
2023/09/26 01:53:42;;;;;;;14.75;11.18;;;12.80;99.90;;;;;;5052138;28;20033;-58
2023/09/26 01:56:08;;;;;;;13.07;11.18;;;12.70;99.90;;;;;;5053335;28;20041;-57
2023/09/26 01:58:33;;;;;;;16.35;11.57;;;12.70;99.90;;;;;;5053221;28;20128;-58
2023/09/26 02:00:59;;;;;;;12.02;10.85;;;12.70;99.90;;;;;;5053163;28;20045;-58
2023/09/26 02:03:25;;;;;;;11.02;9.50;;;12.60;99.90;;;;;;5053818;28;20416;-55
2023/09/26 02:05:56;;;;;;;14.52;10.40;;;12.60;99.90;;;;;;5053344;28;20040;-59
2023/09/26 02:08:22;;;;;;;10.63;9.60;;;12.60;99.90;;;;;;5053016;28;20040;-58
2023/09/26 02:10:48;;;;;;;11.27;9.75;;;12.70;99.90;;;;;;5050557;28;20077;-59
2023/09/26 02:13:13;;;;;;;10.35;9.07;;;12.70;99.90;;;;;;5051985;28;20090;-58
2023/09/26 02:15:39;;;;;;;12.38;9.65;;;12.70;99.90;;;;;;5056446;28;20041;-57
2023/09/26 02:18:05;;;;;;;10.68;9.38;;;12.70;99.90;;;;;;5052418;28;20044;-58
2023/09/26 02:20:31;;;;;;;12.55;9.68;;;12.70;99.90;;;;;;5052649;28;20045;-58
2023/09/26 02:22:57;;;;;;;10.35;9.38;;;12.70;99.90;;;;;;5051119;28;20537;-60
2023/09/26 02:25:23;;;;;;;10.43;9.00;;;12.70;99.90;;;;;;5048680;28;20471;-58
2023/09/26 02:27:50;;;;;;;9.48;8.55;;;12.80;99.90;;;;;;5049639;28;20033;-58
2023/09/26 02:30:28;;;;;;;9.77;8.98;;;12.80;99.90;;;;;;5048665;28;20040;-59
2023/09/26 02:32:54;;;;;;;10.82;8.35;;;12.80;99.90;;;;;;5049814;28;20073;-57
2023/09/26 02:35:20;;;;;;;9.88;8.10;;;12.90;99.90;;;;;;5053142;28;20177;-59
2023/09/26 02:37:46;;;;;;;8.02;7.25;;;12.90;99.90;;;;;;5050443;28;20078;-57
2023/09/26 02:40:12;;;;;;;7.93;7.18;;;12.90;99.90;;;;;;5054777;28;20068;-59
2023/09/26 02:42:45;;;;;;;10.10;9.07;;;12.90;99.90;;;;;;5052886;28;20528;-56
2023/09/26 02:45:13;;;;;;;9.25;8.35;;;12.90;99.90;;;;;;5053220;28;20465;-58
2023/09/26 02:47:39;;;;;;;8.07;7.32;;;12.80;99.90;;;;;;5051351;28;20029;-58
2023/09/26 02:50:05;;;;;;;8.82;8.02;;;12.70;99.90;;;;;;5052884;28;20037;-59
2023/09/26 02:52:31;;;;;;;7.75;6.90;;;12.70;99.90;;;;;;5054058;28;20412;-59
2023/09/26 02:54:56;;;;;;;7.13;6.47;;;12.60;99.90;;;;;;5055337;28;20049;-57
2023/09/26 02:57:22;;;;;;;8.65;7.85;;;12.60;99.90;;;;;;5056082;28;20414;-57
2023/09/26 02:59:48;;;;;;;8.07;7.38;;;12.60;99.90;;;;;;5056178;28;20033;-58
2023/09/26 03:02:14;;;;;;;8.35;7.65;;;12.60;99.90;;;;;;5049103;28;20458;-58
2023/09/26 03:04:39;;;;;;;7.72;7.03;;;12.50;99.90;;;;;;5053148;28;20110;-59
2023/09/26 03:07:05;;;;;;;11.90;9.73;;;12.50;99.90;;;;;;5050428;28;20070;-59
2023/09/26 03:09:31;;;;;;;9.95;8.73;;;12.40;99.90;;;;;;5050549;28;20075;-58
2023/09/26 03:11:57;;;;;;;9.90;8.90;;;12.40;99.90;;;;;;5052045;28;20037;-59
2023/09/26 03:14:23;;;;;;;10.38;9.38;;;12.40;99.90;;;;;;5052057;28;20025;-57
2023/09/26 03:16:49;;;;;;;10.95;9.10;;;12.40;99.90;;;;;;5051909;28;20492;-58
2023/09/26 03:19:17;;;;;;;12.10;9.63;;;12.40;99.90;;;;;;5055152;28;20487;-59
2023/09/26 03:21:43;;;;;;;9.15;8.00;;;12.40;99.90;;;;;;5053881;28;20090;-57
2023/09/26 03:24:09;;;;;;;8.70;8.00;;;12.40;99.90;;;;;;5051961;28;20037;-58
2023/09/26 03:26:35;;;;;;;11.48;8.35;;;12.40;99.90;;;;;;5051884;28;20040;-57
2023/09/26 03:29:01;;;;;;;8.88;8.05;;;12.40;99.90;;;;;;5051746;28;20029;-57
2023/09/26 03:31:26;;;;;;;8.90;8.00;;;12.40;99.90;;;;;;5051882;28;20032;-58
2023/09/26 03:33:52;;;;;;;9.35;8.05;;;12.40;99.90;;;;;;5054195;28;20723;-57
2023/09/26 03:36:18;;;;;;;10.40;9.32;;;12.40;99.90;;;;;;5056575;28;20048;-56
2023/09/26 03:38:43;;;;;;;9.52;8.57;;;12.40;99.90;;;;;;5058124;28;20052;-58
2023/09/26 03:41:09;;;;;;;9.27;8.48;;;12.40;99.90;;;;;;5059798;28;20033;-58
2023/09/26 03:43:35;;;;;;;11.43;9.20;;;12.40;99.90;;;;;;5053895;28;20079;-58
2023/09/26 03:46:03;;;;;;;7.82;6.97;;;12.50;99.90;;;;;;5055818;28;20412;-59
2023/09/26 03:48:30;;;;;;;8.45;6.97;;;12.40;99.90;;;;;;5052598;28;20032;-57
2023/09/26 03:50:56;;;;;;;9.43;8.48;;;12.40;99.90;;;;;;5053240;28;20041;-57
2023/09/26 03:53:21;;;;;;;9.27;8.07;;;12.40;99.90;;;;;;5055205;28;20064;-59
2023/09/26 03:55:56;;;;;;;8.15;7.35;;;12.30;99.90;;;;;;5054387;28;20084;-57
2023/09/26 03:58:22;;;;;;;10.07;8.50;;;12.20;99.90;;;;;;5062197;28;20131;-58
2023/09/26 04:00:48;;;;;;;10.15;7.93;;;12.20;99.90;;;;;;5058927;28;20507;-60
2023/09/26 04:03:14;;;;;;;;;;;12.20;99.90;;;;;;5058769;28;20032;-60
2023/09/26 04:05:40;;;;;;;6.32;5.72;;;12.10;99.90;;;;;;5056529;28;19939;-58
2023/09/26 04:08:06;;;;;;;;;;;12.00;99.90;;;;;;5055331;28;20045;-58
2023/09/26 04:10:36;;;;;;;6.43;5.82;;;12.00;99.90;;;;;;5051135;28;19932;-59
2023/09/26 04:13:02;;;;;;;5.75;5.25;;;11.90;99.90;;;;;;5055016;28;20118;-57
2023/09/26 04:15:28;;;;;;;6.97;6.10;;;11.90;99.90;;;;;;5055834;28;21559;-57
2023/09/26 04:17:54;;;;;;;7.07;6.47;;;11.90;99.90;;;;;;5058210;28;20599;-57
2023/09/26 04:20:20;;;;;;;7.93;6.65;;;11.80;99.90;;;;;;5058232;28;20131;-60
2023/09/26 04:22:47;;;;;;;10.35;6.57;;;11.80;99.90;;;;;;5059667;28;20036;-57
2023/09/26 04:25:12;;;;;;;11.32;10.13;;;11.80;99.90;;;;;;5054445;28;20043;-58
2023/09/26 04:27:38;;;;;;;11.52;10.45;;;11.80;99.90;;;;;;5056265;28;20400;-58
2023/09/26 04:30:06;;;;;;;10.15;9.15;;;11.80;99.90;;;;;;5052011;28;20128;-56
2023/09/26 04:32:31;;;;;;;10.05;9.10;;;11.80;99.90;;;;;;5052709;28;20077;-58
2023/09/26 04:34:58;;;;;;;11.43;10.10;;;11.90;99.90;;;;;;5054287;28;20040;-59
2023/09/26 04:37:24;;;;;;;11.07;10.00;;;11.90;99.90;;;;;;5057222;28;20128;-57
2023/09/26 04:39:50;;;;;;;11.75;9.65;;;12.00;99.90;;;;;;5052393;28;20298;-58
2023/09/26 04:42:15;;;;;;;8.80;7.35;;;12.00;99.90;;;;;;5056435;28;20033;-57
2023/09/26 04:44:41;;;;;;;12.33;7.47;;;11.90;99.90;;;;;;5055324;28;20036;-59
2023/09/26 04:47:07;;;;;;;9.13;6.97;;;11.80;99.90;;;;;;5057086;28;20287;-58
2023/09/26 04:49:34;;;;;;;9.35;8.18;;;11.80;99.90;;;;;;5056597;28;20502;-57
2023/09/26 04:52:01;;;;;;;10.70;8.88;;;11.70;99.90;;;;;;5055007;28;20051;-59
2023/09/26 04:54:26;;;;;;;;;;;11.80;99.90;;;;;;5057729;28;20282;-54
2023/09/26 04:56:52;;;;;;;9.80;8.20;;;11.70;99.90;;;;;;5055230;28;19916;-57
2023/09/26 04:59:17;;;;;;;14.68;11.18;;;11.80;99.90;;;;;;5058567;28;20486;-60
2023/09/26 05:01:45;;;;;;;13.50;12.18;;;11.80;99.90;;;;;;5054498;28;20104;-59
2023/09/26 05:04:11;;;;;;;14.63;9.88;;;11.80;99.90;;;;;;5056528;28;20298;-58
2023/09/26 05:06:36;;;;;;;11.98;10.88;;;11.80;99.90;;;;;;5052721;28;20031;-58
2023/09/26 05:09:02;;;;;;;16.67;11.47;;;11.70;99.90;;;;;;5055240;28;20036;-60
2023/09/26 05:11:28;;;;;;;12.32;11.05;;;11.70;99.90;;;;;;5050282;28;20409;-59
2023/09/26 05:13:54;;;;;;;13.00;11.70;;;11.70;99.90;;;;;;5050073;28;20044;-58
2023/09/26 05:16:20;;;;;;;14.88;11.40;;;11.70;99.90;;;;;;5053063;28;20048;-58
2023/09/26 05:18:46;;;;;;;12.70;11.40;;;11.70;99.90;;;;;;5053034;28;20049;-60
2023/09/26 05:21:11;;;;;;;;;;;11.70;99.90;;;;;;5054597;28;20036;-59
2023/09/26 05:23:37;;;;;;;14.57;10.50;;;11.70;99.90;;;;;;5053976;28;20011;-59
2023/09/26 05:26:07;;;;;;;12.27;11.05;;;11.80;99.90;;;;;;5054567;28;20048;-55
2023/09/26 05:28:33;;;;;;;12.88;11.40;;;11.80;99.90;;;;;;5053041;28;20044;-59
2023/09/26 05:30:59;;;;;;;14.43;11.18;;;11.90;99.90;;;;;;5055259;28;20049;-58
2023/09/26 05:33:25;;;;;;;14.52;10.90;;;11.90;99.90;;;;;;5055025;28;20479;-57
2023/09/26 05:35:53;;;;;;;14.45;12.05;;;12.00;99.90;;;;;;5053204;28;20035;-57
2023/09/26 05:38:19;;;;;;;14.68;12.18;;;12.00;99.90;;;;;;5057317;28;20055;-56
2023/09/26 05:40:45;;;;;;;;;;;12.00;99.90;;;;;;5054333;28;20080;-57
2023/09/26 05:43:10;;;;;;;13.90;12.38;;;12.10;99.90;;;;;;5057771;28;20041;-56
2023/09/26 05:45:36;;;;;;;16.65;12.23;;;12.20;99.90;;;;;;5052111;28;20029;-56
2023/09/26 05:48:02;;;;;;;11.15;10.15;;;12.30;99.90;;;;;;5052504;28;20033;-57
2023/09/26 05:50:28;;;;;;;11.18;10.00;;;12.50;99.90;;;;;;5051650;28;20037;-59
2023/09/26 05:52:53;;;;;;;11.02;10.05;;;12.60;99.90;;;;;;5050334;28;20039;-57
2023/09/26 05:55:19;;;;;;;10.80;9.80;;;12.90;99.90;;;;;;5050357;28;20136;-56
2023/09/26 05:57:44;;;;;;;11.35;10.15;;;13.20;99.90;;;;;;5049938;28;20661;-57
2023/09/26 06:00:12;;;;;;;10.43;9.15;;;13.40;99.90;;;;;;5049766;28;20406;-58
2023/09/26 06:02:39;;;;;;;13.60;9.50;;;13.50;99.90;;;;;;5050488;28;20053;-57
2023/09/26 06:05:04;;;;;;;;;;;13.60;99.90;;;;;;5054077;28;20029;-54
2023/09/26 06:07:30;;;;;;;13.38;9.77;;;13.70;99.90;;;;;;5054313;28;19957;-57
2023/09/26 06:09:56;;;;;;;12.35;11.05;;;13.60;99.90;;;;;;5053724;28;20021;-57
2023/09/26 06:12:22;;;;;;;11.90;10.70;;;13.40;99.90;;;;;;5049763;28;20036;-56
2023/09/26 06:14:47;;;;;;;14.48;11.35;;;13.30;99.90;;;;;;5055126;28;20032;-58
2023/09/26 06:17:13;;;;;;;11.63;10.50;;;13.30;99.90;;;;;;5047883;28;20041;-59
2023/09/26 06:19:44;;;;;;;14.13;11.23;;;13.40;99.90;;;;;;5048601;28;20530;-58
2023/09/26 06:22:10;;;;;;;11.75;10.57;;;13.40;99.90;;;;;;5056219;28;20045;-59
2023/09/26 06:24:36;;;;;;;22.10;12.82;;;13.40;99.90;;;;;;5054471;28;20411;-59
2023/09/26 06:27:01;;;;;;;17.38;11.07;;;13.40;99.90;;;;;;5054058;28;20037;-59
2023/09/26 06:29:27;;;;;;;16.08;12.05;;;13.30;99.90;;;;;;5059642;28;20454;-59
2023/09/26 06:31:53;;;;;;;13.05;10.30;;;13.30;99.90;;;;;;5054474;28;20128;-56
2023/09/26 06:34:18;;;;;;;12.95;10.77;;;13.30;99.90;;;;;;5050266;28;20418;-57
2023/09/26 06:36:46;;;;;;;20.95;11.20;;;13.40;99.90;;;;;;5051481;28;20049;-58
2023/09/26 06:39:12;;;;;;;14.38;11.02;;;13.40;99.90;;;;;;5052902;28;20047;-58
2023/09/26 06:41:38;;;;;;;15.32;10.77;;;13.40;99.90;;;;;;5049815;28;20426;-57
2023/09/26 06:44:04;;;;;;;;;;;13.40;99.90;;;;;;5052465;28;20407;-60
2023/09/26 06:46:29;;;;;;;10.93;9.88;;;13.40;99.90;;;;;;5049879;28;19939;-59
2023/09/26 06:48:55;;;;;;;12.23;10.85;;;13.40;99.90;;;;;;5043566;28;20044;-57
2023/09/26 06:51:21;;;;;;;13.50;12.18;;;13.40;99.90;;;;;;5046319;28;20049;-58
2023/09/26 06:53:47;;;;;;;11.27;7.72;;;13.40;99.90;;;;;;5046416;28;20037;-58
2023/09/26 06:56:13;;;;;;;10.35;9.35;;;13.40;99.90;;;;;;5046056;28;20072;-58
2023/09/26 06:58:39;;;;;;;14.75;12.30;;;13.40;99.90;;;;;;5050892;28;20064;-60
2023/09/26 07:01:14;;;;;;;59.90;15.55;;;13.30;99.90;;;;;;5047399;28;20040;-59
2023/09/26 07:03:39;;;;;;;29.83;11.65;;;13.40;99.90;;;;;;5037549;28;20037;-60
2023/09/26 07:06:10;;;;;;;13.40;11.93;;;13.40;99.90;;;;;;5046206;28;20075;-60
2023/09/26 07:08:39;;;;;;;16.15;10.20;;;13.40;99.90;;;;;;5058906;28;20049;-56
2023/09/26 07:11:07;;;;;;;19.05;12.57;;;13.40;99.90;;;;;;5054264;28;20130;-59
2023/09/26 07:13:34;;;;;;;29.30;13.45;;;13.40;99.90;;;;;;5052112;28;20037;-57
2023/09/26 07:16:05;;;;;;;116.13;21.83;;;13.40;99.90;;;;;;5052235;28;20512;-59
2023/09/26 07:18:31;;;;;;;14.75;10.70;;;13.40;99.90;;;;;;5061274;28;20120;-57
2023/09/26 07:21:04;;;;;;;44.78;10.73;;;13.40;99.90;;;;;;5046317;28;20037;-58
2023/09/26 07:23:35;;;;;;;20.35;10.40;;;13.50;99.90;;;;;;5059918;28;20503;-56
2023/09/26 07:26:27;;;;;;;23.15;11.00;;;13.60;99.90;;;;;;5056114;28;20041;-57
2023/09/26 07:28:53;;;;;;;25.05;12.25;;;13.70;99.90;;;;;;5061273;28;20045;-60
2023/09/26 07:31:19;;;;;;;15.68;12.20;;;13.70;99.90;;;;;;5070723;28;20422;-59
2023/09/26 07:33:45;;;;;;;;;;;13.80;99.90;;;;;;5065839;28;20047;-59
2023/09/26 07:36:11;;;;;;;17.83;11.85;;;13.80;99.90;;;;;;5071628;28;20924;-60
2023/09/26 07:38:37;;;;;;;11.90;10.60;;;13.90;99.90;;;;;;5072412;28;20052;-57
2023/09/26 07:41:03;;;;;;;13.65;11.75;;;14.00;99.90;;;;;;5068060;28;20499;-56
2023/09/26 07:43:30;;;;;;;17.50;11.48;;;14.00;99.90;;;;;;5066378;28;20043;-58
2023/09/26 07:45:59;;;;;;;17.10;12.10;;;14.10;99.90;;;;;;5070135;28;20032;-56
2023/09/26 07:48:25;;;;;;;15.32;12.30;;;14.10;99.90;;;;;;5070696;28;20248;-59
2023/09/26 07:50:51;;;;;;;14.57;13.02;;;14.20;99.90;;;;;;5059460;28;20063;-59
2023/09/26 07:53:16;;;;;;;13.35;11.95;;;14.20;99.90;;;;;;5061640;28;20056;-59
2023/09/26 07:55:42;;;;;;;15.23;12.27;;;14.30;99.90;;;;;;5060267;28;20044;-61
2023/09/26 07:58:08;;;;;;;15.05;13.07;;;14.30;99.90;;;;;;5055756;28;20522;-58
2023/09/26 08:00:34;;;;;;;14.45;12.82;;;14.40;99.90;;;;;;5066211;28;20041;-59
2023/09/26 08:03:00;;;;;;;13.23;11.82;;;14.40;99.90;;;;;;5069612;28;20048;-60
2023/09/26 08:05:26;;;;;;;14.77;12.80;;;14.40;99.90;;;;;;5072154;28;20029;-59
2023/09/26 08:07:52;;;;;;;13.32;12.00;;;14.40;99.90;;;;;;5049464;28;20024;-58
2023/09/26 08:10:17;;;;;;;14.45;12.93;;;14.50;99.90;;;;;;5039267;28;20037;-61
2023/09/26 08:12:43;;;;;;;11.88;9.98;;;14.50;99.90;;;;;;5050459;28;20055;-60
2023/09/26 08:15:09;;;;;;;13.00;11.32;;;14.60;99.90;;;;;;5043707;28;20033;-60
2023/09/26 08:17:35;;;;;;;13.48;12.18;;;14.60;99.90;;;;;;5039114;28;20048;-58
2023/09/26 08:20:01;;;;;;;16.13;13.52;;;14.70;99.90;;;;;;5046893;28;20395;-56
2023/09/26 08:22:26;;;;;;;14.00;12.07;;;14.70;99.90;;;;;;5045934;28;20131;-58
2023/09/26 08:24:52;;;;;;;14.55;12.70;;;14.80;99.90;;;;;;5044402;28;20546;-59
2023/09/26 08:27:18;;;;;;;15.07;12.77;;;14.80;99.90;;;;;;5045365;28;20029;-61
2023/09/26 08:29:43;;;;;;;14.35;12.88;;;14.80;99.90;;;;;;5043475;28;20572;-57
2023/09/26 08:32:09;;;;;;;13.48;12.15;;;14.90;99.90;;;;;;5040154;28;20072;-59
2023/09/26 08:34:35;;;;;;;13.45;12.15;;;14.90;99.90;;;;;;5038497;28;20567;-62
2023/09/26 08:37:01;;;;;;;16.23;12.57;;;15.00;99.90;;;;;;5043573;28;20052;-60
2023/09/26 08:39:27;;;;;;;12.73;11.55;;;15.10;99.90;;;;;;5044495;28;20162;-61
2023/09/26 08:41:53;;;;;;;13.07;11.57;;;15.20;99.90;;;;;;5042038;28;20041;-60
2023/09/26 08:44:19;;;;;;;13.38;11.55;;;15.30;99.90;;;;;;5042224;28;20040;-61
2023/09/26 08:46:45;;;;;;;12.15;10.40;;;15.40;99.90;;;;;;5044309;28;20083;-60
2023/09/26 08:49:11;;;;;;;;;;;15.40;99.90;;;;;;5044686;28;20567;-60
2023/09/26 08:51:37;;;;;;;12.50;11.32;;;15.50;99.90;;;;;;5043810;28;19916;-57
2023/09/26 08:54:03;;;;;;;14.35;11.13;;;15.60;99.90;;;;;;5043823;28;20294;-62
2023/09/26 08:56:31;;;;;;;15.48;12.20;;;15.70;99.90;;;;;;5043305;28;20069;-59
2023/09/26 08:58:58;;;;;;;11.43;10.43;;;15.70;99.90;;;;;;5029697;28;20051;-62
2023/09/26 09:01:24;;;;;;;;;;;15.80;99.90;;;;;;5044574;28;20309;-59
2023/09/26 09:03:50;;;;;;;15.80;13.87;;;15.90;99.90;;;;;;5040211;28;19975;-60
2023/09/26 09:06:15;;;;;;;15.63;12.95;;;16.00;99.90;;;;;;5043148;28;20044;-62
2023/09/26 09:08:41;;;;;;;12.77;11.13;;;16.00;99.90;;;;;;5043257;28;20454;-61
2023/09/26 09:11:06;;;;;;;13.25;11.75;;;16.10;99.90;;;;;;5040427;28;20407;-60
2023/09/26 09:13:40;;;;;;;16.58;11.93;;;16.20;99.90;;;;;;5051161;28;20032;-61
2023/09/26 09:16:16;;;;;;;13.55;11.57;;;16.20;99.90;;;;;;5046612;28;20110;-60
2023/09/26 09:18:44;;;;;;;12.23;10.23;;;16.30;99.90;;;;;;5042484;28;20040;-59
2023/09/26 09:21:27;;;;;;;12.73;11.32;;;16.40;99.90;;;;;;5040562;28;20296;-59
2023/09/26 09:23:54;;;;;;;13.20;11.77;;;16.50;99.90;;;;;;5046138;28;20593;-59
2023/09/26 09:26:22;;;;;;;12.40;10.90;;;16.60;99.90;;;;;;5043660;28;20041;-59
2023/09/26 09:28:51;;;;;;;12.93;11.63;;;16.70;99.90;;;;;;5043094;28;20055;-60
2023/09/26 09:31:17;;;;;;;12.60;10.88;;;16.80;99.90;;;;;;5041667;28;20734;-58
2023/09/26 09:33:55;;;;;;;14.93;10.70;;;16.90;99.90;;;;;;5035276;28;20037;-58
2023/09/26 09:36:21;;;;;;;12.27;11.02;;;17.00;99.90;;;;;;5042016;28;20132;-60
2023/09/26 09:38:47;;;;;;;12.90;11.40;;;17.00;99.90;;;;;;5043333;28;20041;-59
2023/09/26 09:41:13;;;;;;;16.00;11.48;;;17.00;99.90;;;;;;5046896;28;20247;-60
2023/09/26 09:43:38;;;;;;;13.27;10.73;;;17.00;99.90;;;;;;5044210;28;20350;-60
2023/09/26 09:46:08;;;;;;;14.48;11.40;;;17.00;99.90;;;;;;5046999;28;20445;-59
2023/09/26 09:48:46;;;;;;;12.10;10.90;;;17.00;99.90;;;;;;5038890;28;20514;-61
2023/09/26 09:51:14;;;;;;;12.02;10.80;;;17.10;99.90;;;;;;5040388;28;20045;-61
2023/09/26 09:53:48;;;;;;;14.38;10.73;;;17.10;99.90;;;;;;5037561;28;20411;-59
2023/09/26 09:56:18;;;;;;;10.18;9.30;;;17.10;99.90;;;;;;5040539;28;20036;-58
2023/09/26 09:58:49;;;;;;;14.07;10.65;;;17.20;99.90;;;;;;5039529;28;20037;-59
2023/09/26 10:01:20;;;;;;;12.32;10.02;;;17.30;99.90;;;;;;5044209;28;20075;-60
2023/09/26 10:03:50;;;;;;;10.57;9.48;;;17.40;99.90;;;;;;5044930;28;20128;-60
2023/09/26 10:06:17;;;;;;;14.68;9.90;;;17.50;99.90;;;;;;5043810;28;20499;-61
2023/09/26 10:08:44;;;;;;;11.35;10.18;;;17.60;99.90;;;;;;5025001;28;20037;-61
2023/09/26 10:11:10;;;;;;;12.05;9.15;;;17.70;99.90;;;;;;5044490;28;20041;-60
2023/09/26 10:13:36;;;;;;;13.07;9.25;;;17.90;99.90;;;;;;5042815;28;20041;-60
2023/09/26 10:16:06;;;;;;;9.98;8.25;;;18.10;99.90;;;;;;5036535;28;20401;-60
2023/09/26 10:18:37;;;;;;;9.85;8.95;;;18.20;99.90;;;;;;5041240;28;20410;-59
2023/09/26 10:21:03;;;;;;;8.15;7.28;;;18.40;99.90;;;;;;5045281;28;20393;-59
2023/09/26 10:23:29;;;;;;;8.35;7.30;;;18.50;99.90;;;;;;5045181;28;20515;-61
2023/09/26 10:25:54;;;;;;;10.52;8.10;;;18.60;99.90;;;;;;5042737;28;20902;-59
2023/09/26 10:28:21;;;;;;;11.05;8.43;;;18.50;99.90;;;;;;5043019;28;20392;-61
2023/09/26 10:30:54;;;;;;;8.88;8.00;;;18.60;99.90;;;;;;5042978;28;20041;-61
2023/09/26 10:33:20;;;;;;;9.35;8.20;;;18.60;99.90;;;;;;5046850;28;20438;-59
2023/09/26 10:35:45;;;;;;;10.30;7.78;;;18.70;99.90;;;;;;5041485;28;20048;-58
2023/09/26 10:38:18;;;;;;;9.23;8.25;;;18.70;99.90;;;;;;5046527;28;20127;-58
2023/09/26 10:40:46;;;;;;;14.05;8.77;;;18.70;99.90;;;;;;5042434;28;20047;-60
2023/09/26 10:43:11;;;;;;;10.43;7.47;;;18.80;99.90;;;;;;5040330;28;20059;-59
2023/09/26 10:45:42;;;;;;;9.18;8.23;;;18.80;99.90;;;;;;5041323;28;20309;-60
2023/09/26 10:48:07;;;;;;;9.23;7.63;;;18.80;99.90;;;;;;5044129;28;20044;-60
2023/09/26 10:50:33;;;;;;;7.72;6.68;;;18.90;99.90;;;;;;5048966;28;20079;-61
2023/09/26 10:52:59;;;;;;;8.07;7.28;;;18.90;99.90;;;;;;5046277;28;20595;-61
2023/09/26 10:55:25;;;;;;;10.30;7.00;;;18.90;99.90;;;;;;5044850;28;20060;-60
2023/09/26 10:57:51;;;;;;;8.25;7.10;;;19.00;99.90;;;;;;5050090;28;20292;-59
2023/09/26 11:00:17;;;;;;;8.88;6.22;;;19.00;99.90;;;;;;5047614;28;20127;-57
2023/09/26 11:02:45;;;;;;;13.82;7.40;;;19.10;99.90;;;;;;5050503;28;20249;-61
2023/09/26 11:05:13;;;;;;;10.32;7.45;;;19.20;99.90;;;;;;5046205;28;20037;-59
2023/09/26 11:07:40;;;;;;;11.95;7.78;;;19.30;99.90;;;;;;5048044;28;20131;-61
2023/09/26 11:10:11;;;;;;;8.20;7.18;;;19.30;99.90;;;;;;5049250;28;20044;-61
2023/09/26 11:12:37;;;;;;;8.75;7.57;;;19.40;99.90;;;;;;5028711;28;20132;-61
2023/09/26 11:15:03;;;;;;;19.65;8.02;;;19.50;99.90;;;;;;5046934;28;20038;-60
2023/09/26 11:17:31;;;;;;;11.23;7.72;;;19.60;99.90;;;;;;5047188;28;20175;-60
2023/09/26 11:20:00;;;;;;;8.82;7.35;;;19.70;99.90;;;;;;5044260;28;20072;-57
2023/09/26 11:22:26;;;;;;;7.95;6.63;;;19.80;99.90;;;;;;5047704;28;20037;-61
2023/09/26 11:25:10;;;;;;;12.30;6.68;;;19.80;99.90;;;;;;5046249;28;20028;-60
2023/09/26 11:27:55;;;;;;;91.85;10.23;;;19.90;99.90;;;;;;5043609;28;20108;-61
2023/09/26 11:30:22;;;;;;;113.93;13.30;;;20.00;99.90;;;;;;5050354;28;20044;-61
2023/09/26 11:32:52;;;;;;;75.25;9.77;;;20.00;99.90;;;;;;5044420;28;20051;-60
2023/09/26 11:35:19;;;;;;;15.60;4.50;;;20.10;99.90;;;;;;5046953;28;20044;-61
2023/09/26 11:37:52;;;;;;;38.22;5.82;;;20.20;99.90;;;;;;5040064;28;20059;-58
2023/09/26 11:40:22;;;;;;;18.48;4.75;;;20.20;99.90;;;;;;5045130;28;20045;-59
2023/09/26 11:42:50;;;;;;;10.57;3.85;;;20.30;99.90;;;;;;5046238;28;20044;-59
2023/09/26 11:45:24;;;;;;;5.68;3.83;;;20.40;99.90;;;;;;5044903;28;20039;-57
2023/09/26 11:47:52;;;;;;;5.72;3.38;;;20.40;99.90;;;;;;5040006;28;20036;-59
2023/09/26 11:50:18;;;;;;;13.07;3.90;;;20.40;99.90;;;;;;5044005;28;20149;-59
2023/09/26 11:52:44;;;;;;;13.00;4.53;;;20.50;99.90;;;;;;5045283;28;20545;-59
2023/09/26 11:55:17;;;;;;;3.60;3.30;;;20.50;99.90;;;;;;5049165;28;20647;-58
2023/09/26 11:57:43;;;;;;;4.95;3.65;;;20.50;99.90;;;;;;5050563;28;20051;-58
2023/09/26 12:00:11;;;;;;;6.80;4.13;;;20.50;99.90;;;;;;5050914;28;20381;-59
2023/09/26 12:02:39;;;;;;;4.97;3.53;;;20.50;99.90;;;;;;5049345;28;20060;-57
2023/09/26 12:05:08;;;;;;;4.30;3.80;;;20.50;99.90;;;;;;5051016;28;20033;-59
2023/09/26 12:07:35;;;;;;;6.53;4.00;;;20.50;99.90;;;;;;5049369;28;20116;-58
2023/09/26 12:10:00;;;;;;;7.20;4.05;;;20.50;99.90;;;;;;5047459;28;20171;-58
2023/09/26 12:12:26;;;;;;;6.10;3.80;;;20.40;99.90;;;;;;5053812;28;20503;-58
2023/09/26 12:15:22;;;;;;;4.03;3.65;;;20.50;99.90;;;;;;5049412;28;20037;-58
2023/09/26 12:17:49;;;;;;;6.57;3.90;;;20.50;99.90;;;;;;5045095;28;20130;-55
2023/09/26 12:20:21;;;;;;;5.80;3.95;;;20.50;99.90;;;;;;5053845;28;20384;-57
2023/09/26 12:22:48;;;;;;;7.93;4.55;;;20.60;99.90;;;;;;5048364;28;20096;-58
2023/09/26 12:25:13;;;;;;;5.65;3.78;;;20.60;99.90;;;;;;5048483;28;20074;-58
2023/09/26 12:27:39;;;;;;;;;;;20.70;99.90;;;;;;5045609;28;20178;-57
2023/09/26 12:30:05;;;;;;;6.65;4.40;;;20.80;99.90;;;;;;5041767;28;20303;-57
2023/09/26 12:32:31;;;;;;;7.72;4.75;;;20.90;99.90;;;;;;5040700;28;20049;-57
2023/09/26 12:34:57;;;;;;;;;;;20.90;99.90;;;;;;5047570;28;20041;-58
2023/09/26 12:37:23;;;;;;;6.35;4.80;;;20.90;99.90;;;;;;5047419;28;19916;-58